sensor_id;sensor_type;location;lat;lon;timestamp;pressure;altitude;pressure_sealevel;temperature;humidity
17072;BME280;7731;50.720;6.912;2022-07-17T00:00:53;101130.38;;;14.17;nan
17072;BME280;7731;50.720;6.912;2022-07-17T00:03:23;101123.63;;;14.32;nan
17072;BME280;7731;50.720;6.912;2022-07-17T00:05:53;101123.16;;;14.41;nan
17072;BME280;7731;50.720;6.912;2022-07-17T00:08:26;101118.34;;;14.51;nan
17072;BME280;7731;50.720;6.912;2022-07-17T00:10:59;101122.47;;;14.37;nan
17072;BME280;7731;50.720;6.912;2022-07-17T00:13:29;101119.72;;;14.58;nan
17072;BME280;7731;50.720;6.912;2022-07-17T00:16:00;101128.13;;;14.63;nan
17072;BME280;7731;50.720;6.912;2022-07-17T00:18:30;101127.63;;;14.37;nan
17072;BME280;7731;50.720;6.912;2022-07-17T00:21:00;101130.38;;;14.17;nan
17072;BME280;7731;50.720;6.912;2022-07-17T00:23:33;101131.81;;;14.40;nan
17072;BME280;7731;50.720;6.912;2022-07-17T00:26:04;101131.97;;;14.37;nan
17072;BME280;7731;50.720;6.912;2022-07-17T00:28:34;101123.97;;;14.06;nan
17072;BME280;7731;50.720;6.912;2022-07-17T00:31:05;101129.75;;;13.75;nan
17072;BME280;7731;50.720;6.912;2022-07-17T00:33:35;101129.31;;;13.84;nan
17072;BME280;7731;50.720;6.912;2022-07-17T00:36:06;101130.19;;;13.66;nan
17072;BME280;7731;50.720;6.912;2022-07-17T00:38:39;101117.84;;;13.53;nan
17072;BME280;7731;50.720;6.912;2022-07-17T00:41:09;101119.84;;;13.66;nan
17072;BME280;7731;50.720;6.912;2022-07-17T00:43:40;101116.16;;;13.71;nan
17072;BME280;7731;50.720;6.912;2022-07-17T00:46:13;101113.97;;;13.81;nan
17072;BME280;7731;50.720;6.912;2022-07-17T00:48:43;101113.69;;;13.68;nan
17072;BME280;7731;50.720;6.912;2022-07-17T00:51:13;101111.59;;;13.77;nan
17072;BME280;7731;50.720;6.912;2022-07-17T00:53:47;101119.81;;;13.85;nan
17072;BME280;7731;50.720;6.912;2022-07-17T00:56:22;101115.81;;;13.79;nan
17072;BME280;7731;50.720;6.912;2022-07-17T00:58:53;101110.72;;;13.78;nan
17072;BME280;7731;50.720;6.912;2022-07-17T01:01:23;101107.53;;;13.53;nan
17072;BME280;7731;50.720;6.912;2022-07-17T01:03:54;101099.84;;;13.52;nan
17072;BME280;7731;50.720;6.912;2022-07-17T01:06:25;101103.78;;;13.59;nan
17072;BME280;7731;50.720;6.912;2022-07-17T01:08:58;101109.38;;;13.69;nan
17072;BME280;7731;50.720;6.912;2022-07-17T01:11:29;101103.00;;;13.39;nan
17072;BME280;7731;50.720;6.912;2022-07-17T01:14:00;101103.75;;;13.42;nan
17072;BME280;7731;50.720;6.912;2022-07-17T01:16:32;101104.34;;;13.28;nan
17072;BME280;7731;50.720;6.912;2022-07-17T01:19:03;101108.88;;;13.22;nan
17072;BME280;7731;50.720;6.912;2022-07-17T01:21:44;101118.00;;;13.11;nan
17072;BME280;7731;50.720;6.912;2022-07-17T01:24:16;101129.00;;;12.95;nan
17072;BME280;7731;50.720;6.912;2022-07-17T01:26:49;101124.78;;;12.93;nan
17072;BME280;7731;50.720;6.912;2022-07-17T01:29:19;101124.94;;;12.90;nan
17072;BME280;7731;50.720;6.912;2022-07-17T01:31:50;101123.44;;;13.04;nan
17072;BME280;7731;50.720;6.912;2022-07-17T01:34:20;101127.78;;;13.04;nan
17072;BME280;7731;50.720;6.912;2022-07-17T01:36:53;101127.03;;;13.00;nan
17072;BME280;7731;50.720;6.912;2022-07-17T01:39:23;101133.00;;;12.82;nan
17072;BME280;7731;50.720;6.912;2022-07-17T01:42:06;101132.03;;;12.84;nan
17072;BME280;7731;50.720;6.912;2022-07-17T01:44:36;101133.00;;;12.82;nan
17072;BME280;7731;50.720;6.912;2022-07-17T01:47:07;101118.94;;;12.89;nan
17072;BME280;7731;50.720;6.912;2022-07-17T01:49:37;101117.25;;;12.88;nan
17072;BME280;7731;50.720;6.912;2022-07-17T01:52:10;101113.25;;;13.01;nan
17072;BME280;7731;50.720;6.912;2022-07-17T01:54:41;101111.38;;;13.05;nan
17072;BME280;7731;50.720;6.912;2022-07-17T01:57:13;101109.56;;;13.07;nan
17072;BME280;7731;50.720;6.912;2022-07-17T01:59:44;101106.13;;;13.07;nan
17072;BME280;7731;50.720;6.912;2022-07-17T02:02:15;101105.50;;;13.01;nan
17072;BME280;7731;50.720;6.912;2022-07-17T02:04:45;101094.06;;;12.88;nan
17072;BME280;7731;50.720;6.912;2022-07-17T02:07:18;101108.50;;;12.92;nan
17072;BME280;7731;50.720;6.912;2022-07-17T02:09:49;101107.00;;;13.07;nan
17072;BME280;7731;50.720;6.912;2022-07-17T02:12:19;101100.44;;;13.19;nan
17072;BME280;7731;50.720;6.912;2022-07-17T02:14:49;101104.75;;;13.18;nan
17072;BME280;7731;50.720;6.912;2022-07-17T02:17:20;101104.97;;;13.14;nan
17072;BME280;7731;50.720;6.912;2022-07-17T02:19:50;101104.06;;;13.15;nan
17072;BME280;7731;50.720;6.912;2022-07-17T02:22:23;101102.44;;;12.93;nan
17072;BME280;7731;50.720;6.912;2022-07-17T02:24:53;101112.75;;;12.73;nan
17072;BME280;7731;50.720;6.912;2022-07-17T02:27:24;101105.75;;;12.56;nan
17072;BME280;7731;50.720;6.912;2022-07-17T02:29:54;101110.97;;;12.75;nan
17072;BME280;7731;50.720;6.912;2022-07-17T02:32:24;101115.91;;;13.19;nan
17072;BME280;7731;50.720;6.912;2022-07-17T02:34:55;101110.88;;;13.16;nan
17072;BME280;7731;50.720;6.912;2022-07-17T02:37:27;101113.53;;;12.95;nan
17072;BME280;7731;50.720;6.912;2022-07-17T02:39:58;101111.16;;;12.91;nan
17072;BME280;7731;50.720;6.912;2022-07-17T02:42:29;101107.75;;;12.90;nan
17072;BME280;7731;50.720;6.912;2022-07-17T02:44:59;101119.53;;;12.55;nan
17072;BME280;7731;50.720;6.912;2022-07-17T02:47:32;101111.09;;;12.30;nan
17072;BME280;7731;50.720;6.912;2022-07-17T02:50:06;101116.50;;;12.45;nan
17072;BME280;7731;50.720;6.912;2022-07-17T02:52:39;101117.91;;;12.73;nan
17072;BME280;7731;50.720;6.912;2022-07-17T02:55:11;101104.41;;;12.67;nan
17072;BME280;7731;50.720;6.912;2022-07-17T02:57:41;101105.91;;;12.92;nan
17072;BME280;7731;50.720;6.912;2022-07-17T03:00:16;101102.84;;;12.84;nan
17072;BME280;7731;50.720;6.912;2022-07-17T03:02:47;101108.66;;;12.68;nan
17072;BME280;7731;50.720;6.912;2022-07-17T03:05:18;101108.59;;;12.49;nan
17072;BME280;7731;50.720;6.912;2022-07-17T03:07:51;101117.91;;;12.31;nan
17072;BME280;7731;50.720;6.912;2022-07-17T03:10:21;101119.97;;;12.44;nan
17072;BME280;7731;50.720;6.912;2022-07-17T03:12:51;101114.44;;;12.32;nan
17072;BME280;7731;50.720;6.912;2022-07-17T03:15:22;101112.25;;;12.44;nan
17072;BME280;7731;50.720;6.912;2022-07-17T03:17:52;101108.47;;;12.32;nan
17072;BME280;7731;50.720;6.912;2022-07-17T03:20:22;101108.34;;;12.35;nan
17072;BME280;7731;50.720;6.912;2022-07-17T03:22:55;101113.81;;;12.48;nan
17072;BME280;7731;50.720;6.912;2022-07-17T03:25:25;101110.97;;;12.33;nan
17072;BME280;7731;50.720;6.912;2022-07-17T03:27:56;101101.41;;;12.15;nan
17072;BME280;7731;50.720;6.912;2022-07-17T03:30:26;101106.44;;;12.18;nan
17072;BME280;7731;50.720;6.912;2022-07-17T03:32:57;101111.78;;;12.34;nan
17072;BME280;7731;50.720;6.912;2022-07-17T03:35:27;101109.91;;;12.17;nan
17072;BME280;7731;50.720;6.912;2022-07-17T03:38:01;101114.56;;;11.85;nan
17072;BME280;7731;50.720;6.912;2022-07-17T03:40:31;101117.31;;;11.80;nan
17072;BME280;7731;50.720;6.912;2022-07-17T03:43:01;101113.03;;;11.81;nan
17072;BME280;7731;50.720;6.912;2022-07-17T03:45:32;101110.47;;;11.57;nan
17072;BME280;7731;50.720;6.912;2022-07-17T03:48:03;101116.69;;;11.52;nan
17072;BME280;7731;50.720;6.912;2022-07-17T03:50:33;101129.94;;;11.41;nan
17072;BME280;7731;50.720;6.912;2022-07-17T03:53:07;101135.66;;;11.25;nan
17072;BME280;7731;50.720;6.912;2022-07-17T03:55:37;101135.66;;;11.25;nan
17072;BME280;7731;50.720;6.912;2022-07-17T03:58:07;101144.50;;;11.18;nan
17072;BME280;7731;50.720;6.912;2022-07-17T04:00:37;101142.50;;;11.26;nan
17072;BME280;7731;50.720;6.912;2022-07-17T04:03:08;101152.44;;;11.36;nan
17072;BME280;7731;50.720;6.912;2022-07-17T04:06:03;101148.53;;;11.25;nan
17072;BME280;7731;50.720;6.912;2022-07-17T04:08:36;101153.22;;;11.14;nan
17072;BME280;7731;50.720;6.912;2022-07-17T04:11:06;101155.63;;;11.19;nan
17072;BME280;7731;50.720;6.912;2022-07-17T04:13:37;101150.09;;;11.30;nan
17072;BME280;7731;50.720;6.912;2022-07-17T04:16:07;101143.75;;;11.40;nan
17072;BME280;7731;50.720;6.912;2022-07-17T04:18:38;101152.34;;;11.39;nan
17072;BME280;7731;50.720;6.912;2022-07-17T04:21:10;101156.31;;;11.48;nan
17072;BME280;7731;50.720;6.912;2022-07-17T04:23:43;101156.84;;;11.79;nan
17072;BME280;7731;50.720;6.912;2022-07-17T04:26:31;101154.03;;;11.86;nan
17072;BME280;7731;50.720;6.912;2022-07-17T04:29:02;101153.19;;;12.09;nan
17072;BME280;7731;50.720;6.912;2022-07-17T04:31:32;101142.66;;;12.56;nan
17072;BME280;7731;50.720;6.912;2022-07-17T04:34:02;101145.50;;;12.50;nan
17072;BME280;7731;50.720;6.912;2022-07-17T04:36:33;101141.44;;;12.65;nan
17072;BME280;7731;50.720;6.912;2022-07-17T04:39:06;101134.50;;;12.67;nan
17072;BME280;7731;50.720;6.912;2022-07-17T04:41:36;101130.69;;;12.96;nan
17072;BME280;7731;50.720;6.912;2022-07-17T04:44:06;101122.63;;;13.23;nan
17072;BME280;7731;50.720;6.912;2022-07-17T04:46:37;101140.88;;;12.99;nan
17072;BME280;7731;50.720;6.912;2022-07-17T04:49:07;101141.25;;;12.90;nan
17072;BME280;7731;50.720;6.912;2022-07-17T04:51:38;101143.34;;;12.61;nan
17072;BME280;7731;50.720;6.912;2022-07-17T04:54:11;101140.88;;;12.15;nan
17072;BME280;7731;50.720;6.912;2022-07-17T04:56:41;101139.38;;;12.32;nan
17072;BME280;7731;50.720;6.912;2022-07-17T04:59:11;101137.75;;;12.50;nan
17072;BME280;7731;50.720;6.912;2022-07-17T05:01:41;101129.91;;;12.74;nan
17072;BME280;7731;50.720;6.912;2022-07-17T05:04:12;101134.50;;;13.07;nan
17072;BME280;7731;50.720;6.912;2022-07-17T05:06:42;101138.28;;;12.99;nan
17072;BME280;7731;50.720;6.912;2022-07-17T05:09:15;101140.47;;;13.09;nan
17072;BME280;7731;50.720;6.912;2022-07-17T05:11:45;101142.56;;;13.19;nan
17072;BME280;7731;50.720;6.912;2022-07-17T05:14:15;101135.84;;;12.96;nan
17072;BME280;7731;50.720;6.912;2022-07-17T05:16:46;101147.25;;;12.91;nan
17072;BME280;7731;50.720;6.912;2022-07-17T05:19:16;101147.81;;;12.97;nan
17072;BME280;7731;50.720;6.912;2022-07-17T05:21:46;101141.84;;;13.16;nan
17072;BME280;7731;50.720;6.912;2022-07-17T05:24:19;101137.97;;;13.83;nan
17072;BME280;7731;50.720;6.912;2022-07-17T05:26:50;101142.88;;;13.70;nan
17072;BME280;7731;50.720;6.912;2022-07-17T05:29:20;101155.31;;;14.35;nan
17072;BME280;7731;50.720;6.912;2022-07-17T05:31:51;101143.03;;;16.51;nan
17072;BME280;7731;50.720;6.912;2022-07-17T05:34:21;101138.84;;;18.58;nan
17072;BME280;7731;50.720;6.912;2022-07-17T05:36:51;101147.47;;;19.36;nan
17072;BME280;7731;50.720;6.912;2022-07-17T05:39:24;101143.84;;;20.46;nan
17072;BME280;7731;50.720;6.912;2022-07-17T05:41:55;101157.00;;;20.45;nan
17072;BME280;7731;50.720;6.912;2022-07-17T05:44:25;101158.53;;;20.83;nan
17072;BME280;7731;50.720;6.912;2022-07-17T05:46:55;101156.09;;;22.03;nan
17072;BME280;7731;50.720;6.912;2022-07-17T05:49:26;101156.47;;;20.28;nan
17072;BME280;7731;50.720;6.912;2022-07-17T05:51:56;101152.97;;;21.10;nan
17072;BME280;7731;50.720;6.912;2022-07-17T05:54:29;101153.81;;;20.64;nan
17072;BME280;7731;50.720;6.912;2022-07-17T05:57:00;101149.78;;;21.73;nan
17072;BME280;7731;50.720;6.912;2022-07-17T05:59:36;101146.41;;;22.78;nan
17072;BME280;7731;50.720;6.912;2022-07-17T06:02:07;101154.19;;;22.89;nan
17072;BME280;7731;50.720;6.912;2022-07-17T06:04:37;101153.09;;;22.40;nan
17072;BME280;7731;50.720;6.912;2022-07-17T06:07:08;101153.09;;;22.61;nan
17072;BME280;7731;50.720;6.912;2022-07-17T06:09:41;101159.34;;;23.31;nan
17072;BME280;7731;50.720;6.912;2022-07-17T06:12:11;101157.72;;;23.60;nan
17072;BME280;7731;50.720;6.912;2022-07-17T06:14:41;101161.75;;;23.83;nan
17072;BME280;7731;50.720;6.912;2022-07-17T06:17:11;101162.44;;;23.56;nan
17072;BME280;7731;50.720;6.912;2022-07-17T06:19:42;101167.41;;;23.79;nan
17072;BME280;7731;50.720;6.912;2022-07-17T06:22:12;101169.13;;;22.77;nan
17072;BME280;7731;50.720;6.912;2022-07-17T06:24:45;101154.69;;;24.62;nan
17072;BME280;7731;50.720;6.912;2022-07-17T06:27:15;101163.84;;;23.89;nan
17072;BME280;7731;50.720;6.912;2022-07-17T06:30:12;101170.78;;;24.10;nan
17072;BME280;7731;50.720;6.912;2022-07-17T06:32:44;101163.56;;;23.73;nan
17072;BME280;7731;50.720;6.912;2022-07-17T06:35:14;101156.84;;;24.57;nan
17072;BME280;7731;50.720;6.912;2022-07-17T06:37:44;101153.28;;;25.23;nan
17072;BME280;7731;50.720;6.912;2022-07-17T06:40:17;101157.66;;;25.42;nan
17072;BME280;7731;50.720;6.912;2022-07-17T06:42:47;101150.91;;;25.94;nan
17072;BME280;7731;50.720;6.912;2022-07-17T06:45:18;101146.09;;;25.25;nan
17072;BME280;7731;50.720;6.912;2022-07-17T06:47:48;101142.41;;;26.00;nan
17072;BME280;7731;50.720;6.912;2022-07-17T06:50:18;101139.00;;;26.26;nan
17072;BME280;7731;50.720;6.912;2022-07-17T06:52:48;101155.16;;;24.28;nan
17072;BME280;7731;50.720;6.912;2022-07-17T06:55:21;101141.88;;;25.42;nan
17072;BME280;7731;50.720;6.912;2022-07-17T06:57:52;101144.19;;;24.42;nan
17072;BME280;7731;50.720;6.912;2022-07-17T07:00:23;101130.59;;;27.25;nan
17072;BME280;7731;50.720;6.912;2022-07-17T07:02:53;101118.69;;;27.05;nan
17072;BME280;7731;50.720;6.912;2022-07-17T07:05:23;101128.44;;;25.45;nan
17072;BME280;7731;50.720;6.912;2022-07-17T07:07:54;101130.94;;;24.34;nan
17072;BME280;7731;50.720;6.912;2022-07-17T07:10:27;101121.78;;;25.95;nan
17072;BME280;7731;50.720;6.912;2022-07-17T07:12:58;101119.56;;;26.53;nan
17072;BME280;7731;50.720;6.912;2022-07-17T07:15:28;101122.84;;;26.81;nan
17072;BME280;7731;50.720;6.912;2022-07-17T07:17:58;101116.06;;;26.44;nan
17072;BME280;7731;50.720;6.912;2022-07-17T07:20:29;101118.50;;;27.74;nan
17072;BME280;7731;50.720;6.912;2022-07-17T07:22:59;101133.53;;;27.14;nan
17072;BME280;7731;50.720;6.912;2022-07-17T07:25:36;101139.03;;;25.54;nan
17072;BME280;7731;50.720;6.912;2022-07-17T07:28:06;101121.47;;;27.79;nan
17072;BME280;7731;50.720;6.912;2022-07-17T07:31:01;101110.94;;;31.84;nan
17072;BME280;7731;50.720;6.912;2022-07-17T07:33:31;101111.81;;;31.27;nan
17072;BME280;7731;50.720;6.912;2022-07-17T07:36:02;101126.19;;;25.69;nan
17072;BME280;7731;50.720;6.912;2022-07-17T07:38:33;101116.53;;;27.00;nan
17072;BME280;7731;50.720;6.912;2022-07-17T07:41:06;101101.22;;;29.54;nan
17072;BME280;7731;50.720;6.912;2022-07-17T07:43:36;101106.41;;;28.85;nan
17072;BME280;7731;50.720;6.912;2022-07-17T07:46:06;101114.06;;;27.15;nan
17072;BME280;7731;50.720;6.912;2022-07-17T07:48:37;101108.41;;;26.94;nan
17072;BME280;7731;50.720;6.912;2022-07-17T07:51:07;101093.41;;;29.61;nan
17072;BME280;7731;50.720;6.912;2022-07-17T07:53:38;101088.94;;;31.04;nan
17072;BME280;7731;50.720;6.912;2022-07-17T07:56:12;101095.88;;;29.63;nan
17072;BME280;7731;50.720;6.912;2022-07-17T07:58:43;101096.09;;;30.29;nan
17072;BME280;7731;50.720;6.912;2022-07-17T08:01:13;101106.88;;;27.34;nan
17072;BME280;7731;50.720;6.912;2022-07-17T08:03:43;101100.50;;;27.94;nan
17072;BME280;7731;50.720;6.912;2022-07-17T08:06:14;101107.06;;;27.32;nan
17072;BME280;7731;50.720;6.912;2022-07-17T08:08:44;101082.53;;;29.33;nan
17072;BME280;7731;50.720;6.912;2022-07-17T08:11:17;101076.59;;;33.15;nan
17072;BME280;7731;50.720;6.912;2022-07-17T08:13:47;101102.56;;;28.48;nan
17072;BME280;7731;50.720;6.912;2022-07-17T08:16:18;101078.81;;;31.79;nan
17072;BME280;7731;50.720;6.912;2022-07-17T08:18:48;101093.75;;;28.08;nan
17072;BME280;7731;50.720;6.912;2022-07-17T08:21:19;101094.63;;;30.12;nan
17072;BME280;7731;50.720;6.912;2022-07-17T08:23:50;101097.19;;;30.20;nan
17072;BME280;7731;50.720;6.912;2022-07-17T08:26:22;101117.41;;;26.48;nan
17072;BME280;7731;50.720;6.912;2022-07-17T08:28:53;101117.19;;;27.86;nan
17072;BME280;7731;50.720;6.912;2022-07-17T08:31:23;101118.31;;;29.52;nan
17072;BME280;7731;50.720;6.912;2022-07-17T08:33:54;101122.41;;;28.52;nan
17072;BME280;7731;50.720;6.912;2022-07-17T08:36:24;101117.81;;;28.29;nan
17072;BME280;7731;50.720;6.912;2022-07-17T08:38:54;101117.22;;;31.77;nan
17072;BME280;7731;50.720;6.912;2022-07-17T08:41:28;101104.94;;;33.96;nan
17072;BME280;7731;50.720;6.912;2022-07-17T08:44:06;101098.34;;;34.25;nan
17072;BME280;7731;50.720;6.912;2022-07-17T08:46:39;101128.38;;;28.29;nan
17072;BME280;7731;50.720;6.912;2022-07-17T08:49:11;101133.63;;;28.54;nan
17072;BME280;7731;50.720;6.912;2022-07-17T08:51:43;101106.16;;;34.27;nan
17072;BME280;7731;50.720;6.912;2022-07-17T08:54:14;101120.09;;;33.49;nan
17072;BME280;7731;50.720;6.912;2022-07-17T08:56:49;101125.38;;;31.75;nan
17072;BME280;7731;50.720;6.912;2022-07-17T08:59:19;101120.19;;;32.58;nan
17072;BME280;7731;50.720;6.912;2022-07-17T09:01:50;101125.81;;;32.07;nan
17072;BME280;7731;50.720;6.912;2022-07-17T09:04:21;101122.56;;;30.67;nan
17072;BME280;7731;50.720;6.912;2022-07-17T09:06:59;101135.31;;;30.19;nan
17072;BME280;7731;50.720;6.912;2022-07-17T09:09:32;101130.84;;;28.95;nan
17072;BME280;7731;50.720;6.912;2022-07-17T09:12:15;101144.72;;;27.59;nan
17072;BME280;7731;50.720;6.912;2022-07-17T09:14:47;101132.53;;;27.66;nan
17072;BME280;7731;50.720;6.912;2022-07-17T09:17:20;101134.13;;;28.97;nan
17072;BME280;7731;50.720;6.912;2022-07-17T09:19:56;101121.34;;;33.86;nan
17072;BME280;7731;50.720;6.912;2022-07-17T09:22:28;101127.31;;;30.72;nan
17072;BME280;7731;50.720;6.912;2022-07-17T09:25:03;101134.66;;;30.32;nan
17072;BME280;7731;50.720;6.912;2022-07-17T09:27:37;101131.22;;;32.55;nan
17072;BME280;7731;50.720;6.912;2022-07-17T09:30:11;101121.56;;;32.83;nan
17072;BME280;7731;50.720;6.912;2022-07-17T09:32:45;101134.19;;;29.98;nan
17072;BME280;7731;50.720;6.912;2022-07-17T09:35:16;101113.50;;;32.28;nan
17072;BME280;7731;50.720;6.912;2022-07-17T09:37:47;101110.13;;;32.96;nan
17072;BME280;7731;50.720;6.912;2022-07-17T09:40:21;101110.69;;;33.93;nan
17072;BME280;7731;50.720;6.912;2022-07-17T09:43:08;101112.63;;;30.91;nan
17072;BME280;7731;50.720;6.912;2022-07-17T09:45:42;101110.03;;;35.28;nan
17072;BME280;7731;50.720;6.912;2022-07-17T09:48:15;101105.88;;;34.42;nan
17072;BME280;7731;50.720;6.912;2022-07-17T09:50:47;101123.34;;;31.77;nan
17072;BME280;7731;50.720;6.912;2022-07-17T09:53:18;101095.44;;;36.00;nan
17072;BME280;7731;50.720;6.912;2022-07-17T09:55:55;101106.69;;;32.60;nan
17072;BME280;7731;50.720;6.912;2022-07-17T09:58:35;101113.47;;;31.71;nan
17072;BME280;7731;50.720;6.912;2022-07-17T10:01:10;101115.75;;;31.52;nan
17072;BME280;7731;50.720;6.912;2022-07-17T10:03:42;101111.53;;;34.79;nan
17072;BME280;7731;50.720;6.912;2022-07-17T10:06:16;101096.19;;;37.23;nan
17072;BME280;7731;50.720;6.912;2022-07-17T10:08:48;101112.72;;;33.64;nan
17072;BME280;7731;50.720;6.912;2022-07-17T10:11:23;101112.31;;;33.67;nan
17072;BME280;7731;50.720;6.912;2022-07-17T10:14:04;101132.88;;;30.62;nan
17072;BME280;7731;50.720;6.912;2022-07-17T10:16:36;101129.03;;;29.82;nan
17072;BME280;7731;50.720;6.912;2022-07-17T10:19:18;101120.41;;;30.77;nan
17072;BME280;7731;50.720;6.912;2022-07-17T10:21:56;101120.38;;;32.50;nan
17072;BME280;7731;50.720;6.912;2022-07-17T10:24:29;101118.66;;;32.71;nan
17072;BME280;7731;50.720;6.912;2022-07-17T10:27:00;101111.91;;;33.90;nan
17072;BME280;7731;50.720;6.912;2022-07-17T10:29:36;101133.84;;;30.91;nan
17072;BME280;7731;50.720;6.912;2022-07-17T10:32:16;101117.03;;;32.77;nan
17072;BME280;7731;50.720;6.912;2022-07-17T10:34:58;101139.00;;;29.48;nan
17072;BME280;7731;50.720;6.912;2022-07-17T10:37:38;101132.00;;;31.43;nan
17072;BME280;7731;50.720;6.912;2022-07-17T10:40:18;101132.53;;;32.03;nan
17072;BME280;7731;50.720;6.912;2022-07-17T10:42:56;101135.44;;;30.02;nan
17072;BME280;7731;50.720;6.912;2022-07-17T10:45:33;101124.63;;;31.02;nan
17072;BME280;7731;50.720;6.912;2022-07-17T10:48:08;101124.13;;;29.94;nan
17072;BME280;7731;50.720;6.912;2022-07-17T10:50:41;101120.19;;;32.17;nan
17072;BME280;7731;50.720;6.912;2022-07-17T10:53:16;101129.81;;;29.36;nan
17072;BME280;7731;50.720;6.912;2022-07-17T10:55:53;101119.03;;;30.22;nan
17072;BME280;7731;50.720;6.912;2022-07-17T10:58:27;101124.19;;;28.99;nan
17072;BME280;7731;50.720;6.912;2022-07-17T11:01:05;101120.25;;;32.02;nan
17072;BME280;7731;50.720;6.912;2022-07-17T11:03:40;101105.53;;;34.05;nan
17072;BME280;7731;50.720;6.912;2022-07-17T11:06:15;101105.28;;;34.40;nan
17072;BME280;7731;50.720;6.912;2022-07-17T11:08:49;101109.06;;;33.85;nan
17072;BME280;7731;50.720;6.912;2022-07-17T11:11:22;101111.66;;;32.00;nan
17072;BME280;7731;50.720;6.912;2022-07-17T11:14:08;101120.53;;;31.42;nan
17072;BME280;7731;50.720;6.912;2022-07-17T11:16:48;101111.22;;;31.96;nan
17072;BME280;7731;50.720;6.912;2022-07-17T11:19:25;101113.38;;;32.78;nan
17072;BME280;7731;50.720;6.912;2022-07-17T11:21:57;101122.16;;;30.10;nan
17072;BME280;7731;50.720;6.912;2022-07-17T11:24:36;101126.41;;;29.73;nan
17072;BME280;7731;50.720;6.912;2022-07-17T11:27:07;101122.22;;;28.62;nan
17072;BME280;7731;50.720;6.912;2022-07-17T11:29:38;101111.63;;;29.01;nan
17072;BME280;7731;50.720;6.912;2022-07-17T11:32:11;101109.81;;;28.62;nan
17072;BME280;7731;50.720;6.912;2022-07-17T11:34:41;101112.78;;;28.67;nan
17072;BME280;7731;50.720;6.912;2022-07-17T11:37:12;101109.47;;;28.74;nan
17072;BME280;7731;50.720;6.912;2022-07-17T11:39:45;101112.63;;;28.53;nan
17072;BME280;7731;50.720;6.912;2022-07-17T11:42:18;101111.53;;;28.30;nan
17072;BME280;7731;50.720;6.912;2022-07-17T11:44:53;101108.00;;;28.63;nan
17072;BME280;7731;50.720;6.912;2022-07-17T11:47:27;101102.50;;;28.73;nan
17072;BME280;7731;50.720;6.912;2022-07-17T11:50:07;101114.16;;;27.32;nan
17072;BME280;7731;50.720;6.912;2022-07-17T11:52:43;101109.59;;;27.58;nan
17072;BME280;7731;50.720;6.912;2022-07-17T11:55:16;101103.63;;;27.48;nan
17072;BME280;7731;50.720;6.912;2022-07-17T11:57:49;101097.69;;;28.20;nan
17072;BME280;7731;50.720;6.912;2022-07-17T12:00:21;101097.03;;;27.93;nan
17072;BME280;7731;50.720;6.912;2022-07-17T12:03:02;101099.47;;;28.92;nan
17072;BME280;7731;50.720;6.912;2022-07-17T12:05:35;101096.88;;;28.76;nan
17072;BME280;7731;50.720;6.912;2022-07-17T12:08:08;101095.66;;;29.18;nan
17072;BME280;7731;50.720;6.912;2022-07-17T12:10:39;101089.78;;;29.08;nan
17072;BME280;7731;50.720;6.912;2022-07-17T12:13:10;101100.72;;;29.04;nan
17072;BME280;7731;50.720;6.912;2022-07-17T12:15:43;101093.38;;;28.83;nan
17072;BME280;7731;50.720;6.912;2022-07-17T12:18:24;101092.63;;;28.50;nan
17072;BME280;7731;50.720;6.912;2022-07-17T12:20:58;101085.91;;;28.87;nan
17072;BME280;7731;50.720;6.912;2022-07-17T12:23:30;101094.78;;;28.55;nan
17072;BME280;7731;50.720;6.912;2022-07-17T12:26:05;101095.09;;;28.68;nan
17072;BME280;7731;50.720;6.912;2022-07-17T12:28:37;101087.97;;;28.12;nan
17072;BME280;7731;50.720;6.912;2022-07-17T12:31:09;101082.03;;;28.66;nan
17072;BME280;7731;50.720;6.912;2022-07-17T12:33:43;101079.34;;;28.83;nan
17072;BME280;7731;50.720;6.912;2022-07-17T12:36:13;101067.44;;;28.23;nan
17072;BME280;7731;50.720;6.912;2022-07-17T12:38:44;101075.38;;;28.79;nan
17072;BME280;7731;50.720;6.912;2022-07-17T12:41:14;101071.19;;;28.37;nan
17072;BME280;7731;50.720;6.912;2022-07-17T12:43:45;101079.22;;;28.04;nan
17072;BME280;7731;50.720;6.912;2022-07-17T12:46:15;101063.19;;;27.89;nan
17072;BME280;7731;50.720;6.912;2022-07-17T12:48:48;101060.63;;;28.45;nan
17072;BME280;7731;50.720;6.912;2022-07-17T12:51:19;101069.13;;;28.72;nan
17072;BME280;7731;50.720;6.912;2022-07-17T12:53:56;101063.19;;;28.70;nan
17072;BME280;7731;50.720;6.912;2022-07-17T12:56:27;101066.59;;;28.30;nan
17072;BME280;7731;50.720;6.912;2022-07-17T12:58:57;101056.47;;;27.61;nan
17072;BME280;7731;50.720;6.912;2022-07-17T13:01:29;101063.03;;;27.82;nan
17072;BME280;7731;50.720;6.912;2022-07-17T13:04:02;101060.31;;;28.31;nan
17072;BME280;7731;50.720;6.912;2022-07-17T13:06:33;101057.00;;;28.38;nan
17072;BME280;7731;50.720;6.912;2022-07-17T13:09:03;101061.06;;;27.68;nan
17072;BME280;7731;50.720;6.912;2022-07-17T13:11:34;101046.28;;;28.31;nan
17072;BME280;7731;50.720;6.912;2022-07-17T13:14:04;101049.06;;;28.46;nan
17072;BME280;7731;50.720;6.912;2022-07-17T13:16:40;101045.75;;;28.44;nan
17072;BME280;7731;50.720;6.912;2022-07-17T13:19:13;101055.16;;;28.38;nan
17072;BME280;7731;50.720;6.912;2022-07-17T13:21:43;101049.81;;;27.90;nan
17072;BME280;7731;50.720;6.912;2022-07-17T13:24:14;101050.44;;;28.25;nan
17072;BME280;7731;50.720;6.912;2022-07-17T13:26:46;101046.31;;;28.23;nan
17072;BME280;7731;50.720;6.912;2022-07-17T13:29:17;101039.94;;;28.01;nan
17072;BME280;7731;50.720;6.912;2022-07-17T13:31:50;101044.88;;;27.87;nan
17072;BME280;7731;50.720;6.912;2022-07-17T13:34:25;101041.06;;;28.14;nan
17072;BME280;7731;50.720;6.912;2022-07-17T13:36:56;101036.63;;;28.55;nan
17072;BME280;7731;50.720;6.912;2022-07-17T13:39:32;101026.06;;;27.99;nan
17072;BME280;7731;50.720;6.912;2022-07-17T13:42:03;101031.53;;;27.56;nan
17072;BME280;7731;50.720;6.912;2022-07-17T13:44:33;101029.34;;;28.17;nan
17072;BME280;7731;50.720;6.912;2022-07-17T13:47:03;101031.03;;;28.02;nan
17072;BME280;7731;50.720;6.912;2022-07-17T13:49:37;101027.19;;;28.12;nan